sensor_id;sensor_type;location;lat;lon;timestamp;P1;durP1;ratioP1;P2;durP2;ratioP2
40601;SDS011;26310;50.278;19.032;2022-09-21T04:38:18;24.60;;;14.60;;
40601;SDS011;26310;50.278;19.032;2022-09-21T04:43:21;22.03;;;12.00;;
40601;SDS011;26310;50.278;19.032;2022-09-21T04:48:24;24.57;;;12.30;;
40601;SDS011;26310;50.278;19.032;2022-09-21T04:53:27;19.10;;;11.10;;
40601;SDS011;26310;50.278;19.032;2022-09-21T04:58:31;16.87;;;10.53;;
40601;SDS011;26310;50.278;19.032;2022-09-21T05:03:34;22.37;;;12.50;;
40601;SDS011;26310;50.278;19.032;2022-09-21T05:08:38;22.53;;;12.90;;
40601;SDS011;26310;50.278;19.032;2022-09-21T05:14:00;26.10;;;14.07;;
40601;SDS011;26310;50.278;19.032;2022-09-21T05:19:04;21.03;;;12.90;;
40601;SDS011;26310;50.278;19.032;2022-09-21T05:24:08;27.60;;;14.73;;
40601;SDS011;26310;50.278;19.032;2022-09-21T05:29:11;25.37;;;13.30;;
40601;SDS011;26310;50.278;19.032;2022-09-21T05:34:20;21.93;;;11.87;;
40601;SDS011;26310;50.278;19.032;2022-09-21T05:39:37;28.10;;;14.33;;
40601;SDS011;26310;50.278;19.032;2022-09-21T05:44:40;24.33;;;12.27;;
40601;SDS011;26310;50.278;19.032;2022-09-21T06:00:52;24.80;;;13.97;;
40601;SDS011;26310;50.278;19.032;2022-09-21T06:05:59;27.47;;;13.37;;
40601;SDS011;26310;50.278;19.032;2022-09-21T06:11:02;23.43;;;12.93;;
40601;SDS011;26310;50.278;19.032;2022-09-21T06:16:05;24.03;;;13.17;;
40601;SDS011;26310;50.278;19.032;2022-09-21T06:21:08;20.53;;;12.17;;
40601;SDS011;26310;50.278;19.032;2022-09-21T06:26:12;21.57;;;12.53;;
40601;SDS011;26310;50.278;19.032;2022-09-21T06:31:15;23.30;;;12.37;;
40601;SDS011;26310;50.278;19.032;2022-09-21T06:36:19;28.90;;;13.37;;
40601;SDS011;26310;50.278;19.032;2022-09-21T06:41:22;25.20;;;13.13;;
40601;SDS011;26310;50.278;19.032;2022-09-21T06:46:25;21.13;;;11.63;;
40601;SDS011;26310;50.278;19.032;2022-09-21T06:51:28;20.40;;;11.00;;
40601;SDS011;26310;50.278;19.032;2022-09-21T06:56:31;21.27;;;10.57;;
40601;SDS011;26310;50.278;19.032;2022-09-21T07:01:34;22.93;;;12.20;;
40601;SDS011;26310;50.278;19.032;2022-09-21T07:06:37;22.97;;;12.80;;
40601;SDS011;26310;50.278;19.032;2022-09-21T07:11:40;22.43;;;12.87;;
40601;SDS011;26310;50.278;19.032;2022-09-21T07:16:43;22.87;;;12.13;;
40601;SDS011;26310;50.278;19.032;2022-09-21T07:21:47;25.40;;;13.07;;
40601;SDS011;26310;50.278;19.032;2022-09-21T07:26:50;20.53;;;11.23;;
40601;SDS011;26310;50.278;19.032;2022-09-21T07:31:53;22.93;;;12.73;;
40601;SDS011;26310;50.278;19.032;2022-09-21T07:36:56;21.53;;;11.57;;
40601;SDS011;26310;50.278;19.032;2022-09-21T07:41:59;19.23;;;12.00;;
40601;SDS011;26310;50.278;19.032;2022-09-21T07:47:02;17.67;;;10.77;;
40601;SDS011;26310;50.278;19.032;2022-09-21T07:52:06;23.00;;;11.90;;
40601;SDS011;26310;50.278;19.032;2022-09-21T07:57:12;22.27;;;12.93;;
40601;SDS011;26310;50.278;19.032;2022-09-21T08:02:33;20.60;;;13.10;;
40601;SDS011;26310;50.278;19.032;2022-09-21T08:07:36;21.13;;;13.03;;
40601;SDS011;26310;50.278;19.032;2022-09-21T08:12:39;17.27;;;10.20;;
40601;SDS011;26310;50.278;19.032;2022-09-21T08:17:44;10.77;;;6.80;;
40601;SDS011;26310;50.278;19.032;2022-09-21T08:22:47;7.87;;;5.30;;
40601;SDS011;26310;50.278;19.032;2022-09-21T08:27:50;9.23;;;6.10;;
40601;SDS011;26310;50.278;19.032;2022-09-21T08:32:58;8.87;;;6.17;;
40601;SDS011;26310;50.278;19.032;2022-09-21T08:38:01;12.40;;;6.70;;
40601;SDS011;26310;50.278;19.032;2022-09-21T08:43:06;8.73;;;5.67;;
40601;SDS011;26310;50.278;19.032;2022-09-21T08:48:21;7.77;;;5.60;;
40601;SDS011;26310;50.278;19.032;2022-09-21T08:53:35;8.50;;;5.67;;
40601;SDS011;26310;50.278;19.032;2022-09-21T08:58:42;8.57;;;6.30;;
40601;SDS011;26310;50.278;19.032;2022-09-21T09:03:49;14.07;;;8.17;;
40601;SDS011;26310;50.278;19.032;2022-09-21T09:09:11;11.67;;;6.87;;
40601;SDS011;26310;50.278;19.032;2022-09-21T09:14:48;6.13;;;4.23;;
40601;SDS011;26310;50.278;19.032;2022-09-21T09:20:17;10.37;;;6.07;;
40601;SDS011;26310;50.278;19.032;2022-09-21T09:25:43;7.47;;;5.13;;
40601;SDS011;26310;50.278;19.032;2022-09-21T09:30:53;4.43;;;3.60;;
40601;SDS011;26310;50.278;19.032;2022-09-21T09:36:20;4.47;;;3.97;;
40601;SDS011;26310;50.278;19.032;2022-09-21T09:41:55;6.77;;;4.67;;
40601;SDS011;26310;50.278;19.032;2022-09-21T09:52:47;5.30;;;4.13;;
40601;SDS011;26310;50.278;19.032;2022-09-21T09:57:51;5.70;;;4.33;;
40601;SDS011;26310;50.278;19.032;2022-09-21T10:02:57;5.47;;;3.80;;
40601;SDS011;26310;50.278;19.032;2022-09-21T10:08:01;5.47;;;4.07;;
40601;SDS011;26310;50.278;19.032;2022-09-21T10:18:36;4.20;;;3.40;;
40601;SDS011;26310;50.278;19.032;2022-09-21T10:24:03;4.37;;;3.70;;
40601;SDS011;26310;50.278;19.032;2022-09-21T10:34:30;5.17;;;3.40;;
40601;SDS011;26310;50.278;19.032;2022-09-21T10:39:34;4.27;;;3.87;;
40601;SDS011;26310;50.278;19.032;2022-09-21T10:45:22;5.33;;;3.30;;
40601;SDS011;26310;50.278;19.032;2022-09-21T10:50:26;4.93;;;3.90;;
40601;SDS011;26310;50.278;19.032;2022-09-21T10:55:29;4.80;;;3.70;;
40601;SDS011;26310;50.278;19.032;2022-09-21T11:00:39;4.97;;;3.40;;
40601;SDS011;26310;50.278;19.032;2022-09-21T11:05:52;4.87;;;3.30;;
40601;SDS011;26310;50.278;19.032;2022-09-21T11:16:30;3.60;;;2.80;;
40601;SDS011;26310;50.278;19.032;2022-09-21T11:27:01;5.87;;;3.83;;
40601;SDS011;26310;50.278;19.032;2022-09-21T11:32:18;4.87;;;4.10;;
40601;SDS011;26310;50.278;19.032;2022-09-21T11:37:50;5.03;;;3.20;;
40601;SDS011;26310;50.278;19.032;2022-09-21T11:48:44;4.47;;;3.50;;
40601;SDS011;26310;50.278;19.032;2022-09-21T11:54:03;4.03;;;3.07;;
40601;SDS011;26310;50.278;19.032;2022-09-21T11:59:16;5.00;;;3.23;;
40601;SDS011;26310;50.278;19.032;2022-09-21T12:04:32;5.80;;;4.67;;
40601;SDS011;26310;50.278;19.032;2022-09-21T12:15:17;6.87;;;4.43;;
40601;SDS011;26310;50.278;19.032;2022-09-21T12:25:33;6.73;;;4.47;;
40601;SDS011;26310;50.278;19.032;2022-09-21T12:30:40;9.03;;;5.30;;
40601;SDS011;26310;50.278;19.032;2022-09-21T12:35:47;6.53;;;3.60;;
40601;SDS011;26310;50.278;19.032;2022-09-21T12:41:05;5.60;;;3.00;;
40601;SDS011;26310;50.278;19.032;2022-09-21T12:46:32;5.73;;;3.77;;
40601;SDS011;26310;50.278;19.032;2022-09-21T12:51:44;7.53;;;5.63;;
40601;SDS011;26310;50.278;19.032;2022-09-21T12:56:58;7.47;;;4.47;;
40601;SDS011;26310;50.278;19.032;2022-09-21T13:02:50;6.90;;;4.00;;
40601;SDS011;26310;50.278;19.032;2022-09-21T13:08:26;6.63;;;3.63;;
40601;SDS011;26310;50.278;19.032;2022-09-21T13:18:45;5.93;;;4.20;;
40601;SDS011;26310;50.278;19.032;2022-09-21T13:24:03;6.63;;;3.70;;
40601;SDS011;26310;50.278;19.032;2022-09-21T13:39:24;4.83;;;3.00;;
40601;SDS011;26310;50.278;19.032;2022-09-21T13:49:43;5.53;;;2.93;;
40601;SDS011;26310;50.278;19.032;2022-09-21T13:55:16;3.43;;;2.43;;
40601;SDS011;26310;50.278;19.032;2022-09-21T14:00:34;3.63;;;2.47;;
40601;SDS011;26310;50.278;19.032;2022-09-21T14:05:44;3.40;;;2.53;;
40601;SDS011;26310;50.278;19.032;2022-09-21T14:10:54;3.97;;;2.27;;
40601;SDS011;26310;50.278;19.032;2022-09-21T14:21:32;4.67;;;2.33;;
40601;SDS011;26310;50.278;19.032;2022-09-21T14:31:42;5.70;;;3.47;;
40601;SDS011;26310;50.278;19.032;2022-09-21T14:36:45;6.30;;;3.80;;
40601;SDS011;26310;50.278;19.032;2022-09-21T14:41:52;6.50;;;3.73;;
40601;SDS011;26310;50.278;19.032;2022-09-21T14:47:09;5.20;;;3.83;;
40601;SDS011;26310;50.278;19.032;2022-09-21T15:08:49;5.83;;;2.40;;
40601;SDS011;26310;50.278;19.032;2022-09-21T15:19:43;5.50;;;3.20;;
40601;SDS011;26310;50.278;19.032;2022-09-21T15:24:50;5.13;;;3.60;;
40601;SDS011;26310;50.278;19.032;2022-09-21T15:29:57;5.17;;;3.40;;
40601;SDS011;26310;50.278;19.032;2022-09-21T15:35:03;4.23;;;3.33;;
40601;SDS011;26310;50.278;19.032;2022-09-21T15:45:29;4.00;;;2.50;;
40601;SDS011;26310;50.278;19.032;2022-09-21T15:50:39;3.83;;;2.43;;
40601;SDS011;26310;50.278;19.032;2022-09-21T15:55:45;3.13;;;1.90;;
40601;SDS011;26310;50.278;19.032;2022-09-21T16:00:52;3.70;;;2.53;;
40601;SDS011;26310;50.278;19.032;2022-09-21T16:05:57;7.20;;;3.00;;
40601;SDS011;26310;50.278;19.032;2022-09-21T16:16:28;6.30;;;4.30;;
40601;SDS011;26310;50.278;19.032;2022-09-21T16:21:35;5.13;;;3.60;;
40601;SDS011;26310;50.278;19.032;2022-09-21T16:26:40;6.00;;;3.90;;
40601;SDS011;26310;50.278;19.032;2022-09-21T16:31:44;7.30;;;3.77;;
40601;SDS011;26310;50.278;19.032;2022-09-21T16:36:52;8.17;;;3.97;;
40601;SDS011;26310;50.278;19.032;2022-09-21T16:41:56;9.17;;;5.30;;
40601;SDS011;26310;50.278;19.032;2022-09-21T16:47:02;9.10;;;5.57;;
40601;SDS011;26310;50.278;19.032;2022-09-21T16:52:05;13.93;;;6.40;;
40601;SDS011;26310;50.278;19.032;2022-09-21T16:57:09;10.00;;;6.47;;
40601;SDS011;26310;50.278;19.032;2022-09-21T17:02:14;9.93;;;6.00;;
40601;SDS011;26310;50.278;19.032;2022-09-21T17:07:18;9.47;;;6.67;;
40601;SDS011;26310;50.278;19.032;2022-09-21T17:12:22;10.20;;;6.13;;
40601;SDS011;26310;50.278;19.032;2022-09-21T17:17:26;9.90;;;6.63;;
40601;SDS011;26310;50.278;19.032;2022-09-21T17:22:30;9.73;;;5.93;;
40601;SDS011;26310;50.278;19.032;2022-09-21T17:27:33;8.90;;;5.53;;
40601;SDS011;26310;50.278;19.032;2022-09-21T17:32:39;9.07;;;5.47;;
40601;SDS011;26310;50.278;19.032;2022-09-21T17:37:43;9.20;;;5.53;;
40601;SDS011;26310;50.278;19.032;2022-09-21T17:42:47;14.43;;;7.10;;
40601;SDS011;26310;50.278;19.032;2022-09-21T17:47:52;12.03;;;7.23;;
40601;SDS011;26310;50.278;19.032;2022-09-21T17:52:56;13.37;;;7.87;;
40601;SDS011;26310;50.278;19.032;2022-09-21T18:03:40;13.73;;;8.23;;
40601;SDS011;26310;50.278;19.032;2022-09-21T18:08:45;14.70;;;8.47;;
40601;SDS011;26310;50.278;19.032;2022-09-21T18:25:12;17.60;;;10.07;;
40601;SDS011;26310;50.278;19.032;2022-09-21T18:30:17;23.57;;;10.60;;
40601;SDS011;26310;50.278;19.032;2022-09-21T18:45:58;15.63;;;10.13;;
40601;SDS011;26310;50.278;19.032;2022-09-21T18:51:19;17.17;;;10.73;;
40601;SDS011;26310;50.278;19.032;2022-09-21T18:56:26;18.77;;;9.90;;
40601;SDS011;26310;50.278;19.032;2022-09-21T19:01:35;21.07;;;10.33;;
40601;SDS011;26310;50.278;19.032;2022-09-21T19:22:58;17.43;;;10.40;;
40601;SDS011;26310;50.278;19.032;2022-09-21T19:33:54;14.63;;;9.10;;
40601;SDS011;26310;50.278;19.032;2022-09-21T19:38:58;16.63;;;8.93;;
40601;SDS011;26310;50.278;19.032;2022-09-21T19:55:27;13.83;;;7.20;;
40601;SDS011;26310;50.278;19.032;2022-09-21T20:00:50;10.47;;;6.73;;
40601;SDS011;26310;50.278;19.032;2022-09-21T20:11:10;8.67;;;5.77;;
40601;SDS011;26310;50.278;19.032;2022-09-21T20:21:50;9.63;;;5.53;;
40601;SDS011;26310;50.278;19.032;2022-09-21T20:27:01;9.30;;;5.90;;
40601;SDS011;26310;50.278;19.032;2022-09-21T20:32:07;12.17;;;7.20;;
40601;SDS011;26310;50.278;19.032;2022-09-21T20:37:10;11.13;;;7.03;;
40601;SDS011;26310;50.278;19.032;2022-09-21T20:42:19;13.43;;;7.17;;
40601;SDS011;26310;50.278;19.032;2022-09-21T20:47:34;11.33;;;6.70;;
40601;SDS011;26310;50.278;19.032;2022-09-21T20:52:38;14.13;;;6.53;;
40601;SDS011;26310;50.278;19.032;2022-09-21T20:57:43;10.20;;;7.23;;
40601;SDS011;26310;50.278;19.032;2022-09-21T21:02:46;9.77;;;7.43;;
40601;SDS011;26310;50.278;19.032;2022-09-21T21:07:50;10.60;;;7.50;;
40601;SDS011;26310;50.278;19.032;2022-09-21T21:12:54;14.53;;;8.80;;
40601;SDS011;26310;50.278;19.032;2022-09-21T21:17:59;13.67;;;9.37;;
40601;SDS011;26310;50.278;19.032;2022-09-21T21:23:03;15.83;;;9.33;;
40601;SDS011;26310;50.278;19.032;2022-09-21T21:28:08;13.10;;;9.27;;
40601;SDS011;26310;50.278;19.032;2022-09-21T21:33:12;12.27;;;8.57;;
40601;SDS011;26310;50.278;19.032;2022-09-21T21:38:15;13.00;;;9.33;;
40601;SDS011;26310;50.278;19.032;2022-09-21T21:43:18;16.27;;;9.53;;
40601;SDS011;26310;50.278;19.032;2022-09-21T21:48:22;14.33;;;9.73;;
40601;SDS011;26310;50.278;19.032;2022-09-21T21:53:25;14.83;;;9.90;;
40601;SDS011;26310;50.278;19.032;2022-09-21T21:58:28;15.70;;;8.53;;
40601;SDS011;26310;50.278;19.032;2022-09-21T22:03:31;16.93;;;9.03;;
40601;SDS011;26310;50.278;19.032;2022-09-21T22:08:34;12.83;;;8.10;;
40601;SDS011;26310;50.278;19.032;2022-09-21T22:13:38;12.60;;;7.63;;
40601;SDS011;26310;50.278;19.032;2022-09-21T22:18:42;11.43;;;7.60;;
40601;SDS011;26310;50.278;19.032;2022-09-21T22:23:49;10.90;;;6.73;;
40601;SDS011;26310;50.278;19.032;2022-09-21T22:28:58;11.93;;;6.97;;
40601;SDS011;26310;50.278;19.032;2022-09-21T22:34:02;11.60;;;7.50;;
40601;SDS011;26310;50.278;19.032;2022-09-21T22:39:05;11.50;;;6.80;;
40601;SDS011;26310;50.278;19.032;2022-09-21T22:44:09;10.93;;;6.50;;
40601;SDS011;26310;50.278;19.032;2022-09-21T22:49:12;13.93;;;7.83;;
40601;SDS011;26310;50.278;19.032;2022-09-21T22:54:16;12.13;;;7.73;;
40601;SDS011;26310;50.278;19.032;2022-09-21T22:59:19;12.03;;;7.57;;
40601;SDS011;26310;50.278;19.032;2022-09-21T23:04:22;12.87;;;7.57;;
40601;SDS011;26310;50.278;19.032;2022-09-21T23:09:25;11.07;;;7.40;;
40601;SDS011;26310;50.278;19.032;2022-09-21T23:14:28;9.60;;;7.30;;
40601;SDS011;26310;50.278;19.032;2022-09-21T23:19:32;11.23;;;7.60;;
40601;SDS011;26310;50.278;19.032;2022-09-21T23:24:36;11.93;;;7.37;;
40601;SDS011;26310;50.278;19.032;2022-09-21T23:29:39;12.27;;;8.17;;
